OVB weather

Tolmachevo Airport
Novosibirsk, Novosibirsk Oblast, Russia

Public forecast

Using degrees Celsius for public forecast. Weather courtesy of forecast.io.

METAR (pilot weather report)

Retrieved 2019/04/19 00:30 UTC (5 minutes ago):

UNNT 190030Z 23005MPS CAVOK M06/M11 Q1028 R25/710160 R34/910160 NOSIG RMK QFE761/1015

TAF (pilot weather forecast)

Forecast is more than 12 hours old.

Retrieved 2019/04/18 00:21 UTC (1 day ago):

TAF UNNT 182300Z 1900/1924 25007G14MPS CAVOK TEMPO 1900/1906 20003G08MPS BECMG 1911/1913 35003MPS